Impacts METAR Board
IDs:

KDFW - Dallas-Ft Worth Intl, TX, US

Updated at: 0300 UTC 23 May 2018
Potential Impact None Slight Moderate High
Time 22/15Z 22/16Z 22/17Z 22/18Z 22/19Z 22/20Z 22/21Z 22/22Z 22/23Z 23/00Z 23/01Z 23/02Z 23/03Z
Temp78 80 82 84 85 87 88 88 87 86 84 81 80
Dewpt69 69 68 67 66 65 65 63 65 64 64 69 68
Altim30.03 30.03 30.03 30.00 29.98 29.96 29.93 29.91 29.91 29.91 29.92 29.94 29.95
VIS10 10 10 10 10 10 10 10 10 10 10 10 10
CIG200 300 30 300 300 300 300 -- -- 300 300 300 --
CoverBKNBKNBKNBKNBKNBKNBKNSCTSCTBKNBKNBKNSCT
FltCatVFRVFRMVFRVFRVFRVFRVFRVFRVFRVFRVFRVFRVFR
WX--------------------------
WDir210200180150150160190200140190170140150
WSpd9 5 6 10 9 9 12 9 9 10 7 10 9
WGst-- -- -- -- 16 16 -- -- -- -- -- -- --
Raw hourly METARs
KDFW 221453Z 21009KT 10SM SCT018 BKN200 BKN300 26/21 A3003 RMK AO2 SLP160 T02560206 53012
KDFW 221553Z 20005KT 10SM SCT021 BKN300 27/21 A3003 RMK AO2 SLP161 T02670206
KDFW 221653Z 18006KT 10SM BKN030 BKN300 28/20 A3003 RMK AO2 SLP159 T02780200
KDFW 221753Z 15010KT 10SM SCT033 BKN300 29/19 A3000 RMK AO2 SLP152 TCU DSNT NE-SE T02890194 10289 20206 58008
KDFW 221853Z 15009G16KT 10SM SCT037 BKN300 29/19 A2998 RMK AO2 SLP142 TCU DSNT NE-SE T02940189
KDFW 221953Z 16009G16KT 10SM SCT045 BKN300 31/18 A2996 RMK AO2 SLP136 TCU DSNT NE-SE T03060183
KDFW 222053Z COR 19012KT 10SM SCT050 BKN300 31/18 A2993 RMK AO2 SLP128 TCU DSNT NE-SE T03110183 56023
KDFW 222153Z 20009KT 10SM FEW050 SCT300 31/17 A2991 RMK AO2 SLP120 T03110172
KDFW 222253Z COR 14009KT 10SM FEW050TCU SCT300 31/18 A2991 RMK AO2 SLP120 TCU N NE AND DSNT E-SE T03060183
KDFW 222353Z 19010KT 10SM FEW050 BKN300 30/18 A2991 RMK AO2 SLP119 T03000178 10317 20283 56008
KDFW 230053Z 17007KT 10SM FEW050 BKN300 29/18 A2992 RMK AO2 SLP122 T02890178
KDFW 230153Z 14010KT 10SM FEW050 BKN300 27/21 A2994 RMK AO2 SLP128 T02720206
KDFW 230253Z 15009KT 10SM SCT300 27/20 A2995 RMK AO2 SLP134 T02670200 53014



Page loaded:  03:08 UTC  |   08:08 PM Pacific  |   09:08 PM Mountain  |   10:08 PM Central  |   11:08 PM Eastern

 

ADVISORIES

FORECASTS

FORECASTS

OBSERVATIONS

USER TOOLS

ABOUT US